createdAt,value
2023-06-17T00:00:40.197Z,4.80
2023-06-17T00:06:02.102Z,3.50
2023-06-17T00:11:24.072Z,3.75
2023-06-17T00:16:46.058Z,2.90
2023-06-17T00:22:09.903Z,2.28
2023-06-17T00:27:31.891Z,5.15
2023-06-17T00:32:54.359Z,4.15
2023-06-17T00:38:16.398Z,3.17
2023-06-17T00:43:38.273Z,3.47
2023-06-17T00:49:00.335Z,2.63
2023-06-17T00:54:22.241Z,3.78
2023-06-17T00:59:45.774Z,2.80
2023-06-17T01:05:14.277Z,2.40
2023-06-17T01:10:58.902Z,3.55
2023-06-17T01:16:21.891Z,3.80
2023-06-17T01:21:44.731Z,2.78
2023-06-17T01:27:06.574Z,3.08
2023-06-17T01:32:28.632Z,3.13
2023-06-17T01:37:59.704Z,3.90
2023-06-17T01:43:22.675Z,2.38
2023-06-17T01:48:44.990Z,2.45
2023-06-17T01:54:07.079Z,2.35
2023-06-17T01:59:29.903Z,2.28
2023-06-17T02:04:52.337Z,1.88
2023-06-17T02:10:14.660Z,2.35
2023-06-17T02:15:36.677Z,3.03
2023-06-17T02:20:58.601Z,4.15
2023-06-17T02:26:21.019Z,3.03
2023-06-17T02:31:42.934Z,2.83
2023-06-17T02:37:05.250Z,3.83
2023-06-17T02:42:27.141Z,3.50
2023-06-17T02:47:49.003Z,2.53
2023-06-17T02:53:11.921Z,2.33
2023-06-17T02:58:33.825Z,3.17
2023-06-17T03:03:56.660Z,2.13
2023-06-17T03:09:19.153Z,3.72
2023-06-17T03:14:41.080Z,3.15
2023-06-17T03:20:03.314Z,3.33
2023-06-17T03:25:25.208Z,2.42
2023-06-17T03:30:47.359Z,2.22
2023-06-17T03:36:09.270Z,2.47
2023-06-17T03:41:31.091Z,2.78
2023-06-17T03:46:53.031Z,6.15
2023-06-17T03:52:14.828Z,4.95
2023-06-17T03:57:36.612Z,3.05
2023-06-17T04:02:58.678Z,3.55
2023-06-17T04:08:21.069Z,3.08
2023-06-17T04:13:42.901Z,3.47
2023-06-17T04:19:04.798Z,2.17
2023-06-17T04:24:27.136Z,3.78
2023-06-17T04:29:49.450Z,3.58
2023-06-17T04:35:12.386Z,8.88
2023-06-17T04:40:34.183Z,19.42
2023-06-17T04:45:55.985Z,14.02
2023-06-17T04:51:19.284Z,9.70
2023-06-17T04:56:41.864Z,19.98
2023-06-17T05:02:04.560Z,15.27
2023-06-17T05:07:26.385Z,9.30
2023-06-17T05:12:48.388Z,10.35
2023-06-17T05:18:10.439Z,13.02
2023-06-17T05:23:32.327Z,7.18
2023-06-17T05:28:55.109Z,9.73
2023-06-17T05:34:16.935Z,9.32
2023-06-17T05:39:38.931Z,8.57
2023-06-17T05:45:00.949Z,7.55
2023-06-17T05:50:24.583Z,9.68
2023-06-17T05:55:46.575Z,5.60
2023-06-17T06:01:08.397Z,7.90
2023-06-17T06:06:31.257Z,6.50
2023-06-17T06:11:54.837Z,10.77
2023-06-17T06:17:16.689Z,11.13
2023-06-17T06:22:38.959Z,5.28
2023-06-17T06:28:00.905Z,8.85
2023-06-17T06:33:24.242Z,5.78
2023-06-17T06:38:46.254Z,4.88
2023-06-17T06:44:12.267Z,4.68
2023-06-17T06:49:35.154Z,4.68
2023-06-17T06:54:57.432Z,4.40
2023-06-17T07:00:20.150Z,5.50
2023-06-17T07:05:42.501Z,7.05
2023-06-17T07:11:04.349Z,5.28
2023-06-17T07:16:26.570Z,5.57
2023-06-17T07:21:50.378Z,5.40
2023-06-17T07:27:13.752Z,4.72
2023-06-17T07:32:35.685Z,6.03
2023-06-17T07:37:57.645Z,3.83
2023-06-17T07:43:19.518Z,4.97
2023-06-17T07:48:41.467Z,4.88
2023-06-17T07:54:03.337Z,5.03
2023-06-17T07:59:25.242Z,4.03
2023-06-17T08:04:49.016Z,4.85
2023-06-17T08:10:11.185Z,3.75
2023-06-17T08:15:33.145Z,5.80
2023-06-17T08:20:55.087Z,3.97
2023-06-17T08:26:16.926Z,6.20
2023-06-17T08:31:38.754Z,3.30
2023-06-17T08:37:05.166Z,9.90
2023-06-17T08:42:30.238Z,2.40
2023-06-17T08:47:52.551Z,3.35
2023-06-17T08:53:15.982Z,4.97
2023-06-17T08:58:39.216Z,3.75
2023-06-17T09:04:03.349Z,2.93
2023-06-17T09:09:25.135Z,5.13
2023-06-17T09:14:49.919Z,5.72
2023-06-17T09:20:16.482Z,4.70
2023-06-17T09:25:38.291Z,3.90
2023-06-17T09:31:05.386Z,4.32
2023-06-17T09:36:27.515Z,3.83
2023-06-17T09:41:49.694Z,2.95
2023-06-17T09:47:11.637Z,5.70
2023-06-17T09:52:36.534Z,7.32
2023-06-17T09:58:03.024Z,2.72
2023-06-17T10:03:25.639Z,3.33
2023-06-17T10:08:53.809Z,3.72
2023-06-17T10:14:22.231Z,3.70
2023-06-17T10:19:44.929Z,3.88
2023-06-17T10:25:07.613Z,4.85
2023-06-17T10:30:30.441Z,4.00
2023-06-17T10:36:07.380Z,4.47
2023-06-17T10:41:45.979Z,4.22
2023-06-17T10:47:22.521Z,5.70
2023-06-17T10:52:46.744Z,4.18
2023-06-17T10:58:08.747Z,4.57
2023-06-17T11:03:31.112Z,3.83
2023-06-17T11:08:56.408Z,5.40
2023-06-17T11:14:21.669Z,4.53
2023-06-17T11:25:06.893Z,5.45
2023-06-17T11:30:28.907Z,4.65
2023-06-17T11:35:54.551Z,6.40
2023-06-17T11:41:17.114Z,5.65
2023-06-17T11:46:39.163Z,6.25
2023-06-17T11:52:03.540Z,4.00
2023-06-17T11:57:27.143Z,4.85
2023-06-17T12:02:49.338Z,4.57
2023-06-17T12:08:11.295Z,5.93
2023-06-17T12:13:43.269Z,6.22
2023-06-17T12:19:07.721Z,5.18
2023-06-17T12:24:30.117Z,3.87
2023-06-17T12:29:52.065Z,4.60
2023-06-17T12:35:16.049Z,4.90
2023-06-17T12:40:37.951Z,3.47
2023-06-17T12:46:01.007Z,4.43
2023-06-17T12:51:23.198Z,8.73
2023-06-17T12:56:45.554Z,5.93
2023-06-17T13:02:08.194Z,7.75
2023-06-17T13:07:30.037Z,12.50
2023-06-17T13:12:51.896Z,12.43
2023-06-17T13:18:16.497Z,8.27
2023-06-17T13:23:38.419Z,7.83
2023-06-17T13:29:05.588Z,5.47
2023-06-17T13:34:28.001Z,5.82
2023-06-17T13:39:49.917Z,9.55
2023-06-17T13:45:15.496Z,5.40
2023-06-17T13:50:37.822Z,7.22
2023-06-17T13:56:00.440Z,6.80
2023-06-17T14:01:22.594Z,5.57
2023-06-17T14:06:47.522Z,6.05
2023-06-17T14:12:12.664Z,3.97
2023-06-17T14:17:34.686Z,5.25
2023-06-17T14:23:00.655Z,7.07
2023-06-17T14:28:22.613Z,3.40
2023-06-17T14:33:44.458Z,6.38
2023-06-17T14:39:06.347Z,7.38
2023-06-17T14:44:28.962Z,6.05
2023-06-17T14:49:53.621Z,3.92
2023-06-17T14:55:16.504Z,7.67
2023-06-17T15:00:38.483Z,4.75
2023-06-17T15:06:00.384Z,3.33
2023-06-17T15:11:22.239Z,4.88
2023-06-17T15:16:44.089Z,3.50
2023-06-17T15:22:06.584Z,5.20
2023-06-17T15:27:28.829Z,4.30
2023-06-17T15:32:52.820Z,6.32
2023-06-17T15:38:14.722Z,5.63
2023-06-17T15:43:37.048Z,3.22
2023-06-17T15:48:59.108Z,4.55
2023-06-17T15:54:26.667Z,7.15
2023-06-17T15:59:48.763Z,3.50
2023-06-17T16:05:11.835Z,3.60
2023-06-17T16:10:34.182Z,6.30
2023-06-17T16:15:56.320Z,4.70
2023-06-17T16:21:18.184Z,4.80
2023-06-17T16:26:40.083Z,4.45
2023-06-17T16:32:02.000Z,5.00
2023-06-17T16:37:23.906Z,5.88
2023-06-17T16:42:46.361Z,5.25
2023-06-17T16:48:10.488Z,9.63
2023-06-17T16:53:33.848Z,8.10
2023-06-17T16:58:55.920Z,10.30
2023-06-17T17:04:17.976Z,8.80
2023-06-17T17:09:41.476Z,15.48
2023-06-17T17:15:03.472Z,8.10
2023-06-17T17:20:25.770Z,6.57
2023-06-17T17:25:47.627Z,10.68
2023-06-17T17:31:10.100Z,16.10
2023-06-17T17:36:32.358Z,14.63
2023-06-17T17:41:54.188Z,10.05
2023-06-17T17:47:19.063Z,13.00
2023-06-17T17:52:41.465Z,10.20
2023-06-17T17:58:03.368Z,8.27
2023-06-17T18:03:25.398Z,8.35
2023-06-17T18:08:47.330Z,10.65
2023-06-17T18:14:09.190Z,12.93
2023-06-17T18:19:31.283Z,20.95
2023-06-17T18:24:53.198Z,15.65
2023-06-17T18:30:15.355Z,13.93
2023-06-17T18:35:37.266Z,18.05
2023-06-17T18:40:59.173Z,11.70
2023-06-17T18:46:21.978Z,12.10
2023-06-17T18:51:44.292Z,17.48
2023-06-17T18:57:06.392Z,16.85
2023-06-17T19:02:29.466Z,21.33
2023-06-17T19:07:51.362Z,20.90
2023-06-17T19:13:13.211Z,19.60
2023-06-17T19:18:35.097Z,12.43
2023-06-17T19:23:57.047Z,14.10
2023-06-17T19:29:18.916Z,12.73
2023-06-17T19:34:41.167Z,9.10
2023-06-17T19:40:03.336Z,8.45
2023-06-17T19:45:29.734Z,17.27
2023-06-17T19:50:52.080Z,7.65
2023-06-17T19:56:14.536Z,8.88
2023-06-17T20:01:36.842Z,12.10
2023-06-17T20:07:00.152Z,5.90
2023-06-17T20:12:22.627Z,5.43
2023-06-17T20:17:44.643Z,6.30
2023-06-17T20:23:06.576Z,7.03
2023-06-17T20:28:29.601Z,8.35
2023-06-17T20:33:51.496Z,6.30
2023-06-17T20:39:13.404Z,9.20
2023-06-17T20:44:35.270Z,7.15
2023-06-17T20:49:57.120Z,8.10
2023-06-17T20:55:19.060Z,13.13
2023-06-17T21:00:40.979Z,12.15
2023-06-17T21:06:03.123Z,10.32
2023-06-17T21:11:25.155Z,14.32
2023-06-17T21:16:47.073Z,14.77
2023-06-17T21:22:08.926Z,11.23
2023-06-17T21:27:31.049Z,6.18
2023-06-17T21:32:52.938Z,7.65
2023-06-17T21:38:14.953Z,10.40
2023-06-17T21:43:36.786Z,13.23
2023-06-17T21:48:58.661Z,10.52
2023-06-17T21:54:21.206Z,12.65
2023-06-17T21:59:43.338Z,10.35
2023-06-17T22:05:08.068Z,8.00
2023-06-17T22:10:29.932Z,9.40
2023-06-17T22:15:52.406Z,12.50
2023-06-17T22:21:14.276Z,9.13
2023-06-17T22:26:36.299Z,13.10
2023-06-17T22:31:58.196Z,12.55
2023-06-17T22:37:20.926Z,9.00
2023-06-17T22:42:42.899Z,11.60
2023-06-17T22:48:04.967Z,9.90
2023-06-17T22:53:27.149Z,12.15
2023-06-17T22:58:49.464Z,8.07
2023-06-17T23:04:11.539Z,10.40
2023-06-17T23:09:33.685Z,8.82
2023-06-17T23:14:55.723Z,16.42
2023-06-17T23:20:17.621Z,10.05
2023-06-17T23:25:39.500Z,9.45
2023-06-17T23:31:01.767Z,9.73
2023-06-17T23:36:24.371Z,9.95
2023-06-17T23:41:46.593Z,8.18
2023-06-17T23:47:09.349Z,8.43
2023-06-17T23:52:31.146Z,10.05
2023-06-17T23:57:52.950Z,16.30
